sensor_id;sensor_type;location;lat;lon;timestamp;temperature;humidity
23671;DHT22;12012;51.998;7.614;2023-09-30T00:00:24;12.60;99.90
23671;DHT22;12012;51.998;7.614;2023-09-30T00:02:50;12.60;1.00
23671;DHT22;12012;51.998;7.614;2023-09-30T00:05:16;12.60;1.00
23671;DHT22;12012;51.998;7.614;2023-09-30T00:07:47;12.60;99.90
23671;DHT22;12012;51.998;7.614;2023-09-30T00:10:13;12.60;95.90
23671;DHT22;12012;51.998;7.614;2023-09-30T00:12:40;12.50;1.00
23671;DHT22;12012;51.998;7.614;2023-09-30T00:15:05;12.60;1.00
23671;DHT22;12012;51.998;7.614;2023-09-30T00:17:31;12.50;99.90
23671;DHT22;12012;51.998;7.614;2023-09-30T00:19:57;12.50;99.90
23671;DHT22;12012;51.998;7.614;2023-09-30T00:22:24;12.50;99.90
23671;DHT22;12012;51.998;7.614;2023-09-30T00:24:50;12.60;99.90
23671;DHT22;12012;51.998;7.614;2023-09-30T00:27:16;12.50;99.90
23671;DHT22;12012;51.998;7.614;2023-09-30T00:29:42;12.60;1.00
23671;DHT22;12012;51.998;7.614;2023-09-30T00:32:07;12.50;99.90
23671;DHT22;12012;51.998;7.614;2023-09-30T00:34:36;12.50;99.90
23671;DHT22;12012;51.998;7.614;2023-09-30T00:37:02;12.50;13.90
23671;DHT22;12012;51.998;7.614;2023-09-30T00:39:27;12.50;40.70
23671;DHT22;12012;51.998;7.614;2023-09-30T00:41:57;12.50;62.00
23671;DHT22;12012;51.998;7.614;2023-09-30T00:44:24;12.50;1.00
23671;DHT22;12012;51.998;7.614;2023-09-30T00:46:50;12.50;1.00
23671;DHT22;12012;51.998;7.614;2023-09-30T00:49:16;12.50;99.90
23671;DHT22;12012;51.998;7.614;2023-09-30T00:51:44;12.40;99.90
23671;DHT22;12012;51.998;7.614;2023-09-30T00:54:10;12.50;1.00
23671;DHT22;12012;51.998;7.614;2023-09-30T00:56:42;12.50;1.00
23671;DHT22;12012;51.998;7.614;2023-09-30T00:59:08;12.40;99.90
23671;DHT22;12012;51.998;7.614;2023-09-30T01:01:34;12.40;99.90
23671;DHT22;12012;51.998;7.614;2023-09-30T01:04:00;12.40;99.90
23671;DHT22;12012;51.998;7.614;2023-09-30T01:06:26;12.40;99.90
23671;DHT22;12012;51.998;7.614;2023-09-30T01:08:52;12.40;99.90
23671;DHT22;12012;51.998;7.614;2023-09-30T01:11:18;12.40;99.90
23671;DHT22;12012;51.998;7.614;2023-09-30T01:13:44;12.40;99.90
23671;DHT22;12012;51.998;7.614;2023-09-30T01:16:10;12.40;99.90
23671;DHT22;12012;51.998;7.614;2023-09-30T01:18:37;12.40;99.90
23671;DHT22;12012;51.998;7.614;2023-09-30T01:21:04;12.40;99.90
23671;DHT22;12012;51.998;7.614;2023-09-30T01:23:31;12.50;99.90
23671;DHT22;12012;51.998;7.614;2023-09-30T01:25:56;12.40;99.90
23671;DHT22;12012;51.998;7.614;2023-09-30T01:28:22;12.40;99.90
23671;DHT22;12012;51.998;7.614;2023-09-30T01:30:48;12.40;99.90
23671;DHT22;12012;51.998;7.614;2023-09-30T01:33:14;12.40;99.90
23671;DHT22;12012;51.998;7.614;2023-09-30T01:35:44;12.40;99.90
23671;DHT22;12012;51.998;7.614;2023-09-30T01:38:10;12.40;1.00
23671;DHT22;12012;51.998;7.614;2023-09-30T01:40:36;12.40;1.00
23671;DHT22;12012;51.998;7.614;2023-09-30T01:43:03;12.40;99.90
23671;DHT22;12012;51.998;7.614;2023-09-30T01:45:28;12.30;1.00
23671;DHT22;12012;51.998;7.614;2023-09-30T01:47:54;12.30;1.00
23671;DHT22;12012;51.998;7.614;2023-09-30T01:50:19;12.40;1.00
23671;DHT22;12012;51.998;7.614;2023-09-30T01:52:45;12.40;1.00
23671;DHT22;12012;51.998;7.614;2023-09-30T01:55:11;12.40;1.00
23671;DHT22;12012;51.998;7.614;2023-09-30T01:57:36;12.40;1.00
23671;DHT22;12012;51.998;7.614;2023-09-30T02:00:02;12.40;1.00
23671;DHT22;12012;51.998;7.614;2023-09-30T02:02:28;12.40;1.00
23671;DHT22;12012;51.998;7.614;2023-09-30T02:04:54;12.40;1.00
23671;DHT22;12012;51.998;7.614;2023-09-30T02:07:19;12.40;1.00
23671;DHT22;12012;51.998;7.614;2023-09-30T02:09:45;12.30;1.00
23671;DHT22;12012;51.998;7.614;2023-09-30T02:12:10;12.30;1.00
23671;DHT22;12012;51.998;7.614;2023-09-30T02:14:37;12.30;1.00
23671;DHT22;12012;51.998;7.614;2023-09-30T02:17:04;12.30;1.00
23671;DHT22;12012;51.998;7.614;2023-09-30T02:19:29;12.20;1.00
23671;DHT22;12012;51.998;7.614;2023-09-30T02:21:57;12.20;1.00
23671;DHT22;12012;51.998;7.614;2023-09-30T02:24:22;12.20;1.00
23671;DHT22;12012;51.998;7.614;2023-09-30T02:26:48;12.20;1.00
23671;DHT22;12012;51.998;7.614;2023-09-30T02:29:14;12.20;1.00
23671;DHT22;12012;51.998;7.614;2023-09-30T02:31:39;12.20;1.00
23671;DHT22;12012;51.998;7.614;2023-09-30T02:34:06;12.20;1.00
23671;DHT22;12012;51.998;7.614;2023-09-30T02:36:33;12.10;1.00
23671;DHT22;12012;51.998;7.614;2023-09-30T02:38:58;12.20;1.00
23671;DHT22;12012;51.998;7.614;2023-09-30T02:41:26;12.10;1.00
23671;DHT22;12012;51.998;7.614;2023-09-30T02:43:51;12.10;1.00
23671;DHT22;12012;51.998;7.614;2023-09-30T02:46:17;12.10;1.00
23671;DHT22;12012;51.998;7.614;2023-09-30T02:48:42;12.10;1.00
23671;DHT22;12012;51.998;7.614;2023-09-30T02:51:11;12.10;1.00
23671;DHT22;12012;51.998;7.614;2023-09-30T02:53:37;12.10;1.00
23671;DHT22;12012;51.998;7.614;2023-09-30T02:56:03;12.10;1.00
23671;DHT22;12012;51.998;7.614;2023-09-30T02:58:30;12.10;1.00
23671;DHT22;12012;51.998;7.614;2023-09-30T03:00:55;12.10;1.00
23671;DHT22;12012;51.998;7.614;2023-09-30T03:03:21;12.10;1.00
23671;DHT22;12012;51.998;7.614;2023-09-30T03:05:47;12.00;1.00
23671;DHT22;12012;51.998;7.614;2023-09-30T03:08:14;12.00;1.00
23671;DHT22;12012;51.998;7.614;2023-09-30T03:10:40;12.00;1.00
23671;DHT22;12012;51.998;7.614;2023-09-30T03:13:06;12.00;1.00
23671;DHT22;12012;51.998;7.614;2023-09-30T03:15:34;12.00;1.00
23671;DHT22;12012;51.998;7.614;2023-09-30T03:18:00;12.00;1.00
23671;DHT22;12012;51.998;7.614;2023-09-30T03:20:26;12.00;1.00
23671;DHT22;12012;51.998;7.614;2023-09-30T03:22:52;12.00;1.00
23671;DHT22;12012;51.998;7.614;2023-09-30T03:25:19;11.90;1.00
23671;DHT22;12012;51.998;7.614;2023-09-30T03:27:46;11.90;1.00
23671;DHT22;12012;51.998;7.614;2023-09-30T03:30:13;11.90;1.00
23671;DHT22;12012;51.998;7.614;2023-09-30T03:32:40;11.90;1.00
23671;DHT22;12012;51.998;7.614;2023-09-30T03:35:09;11.90;1.00
23671;DHT22;12012;51.998;7.614;2023-09-30T03:37:36;11.90;1.00
23671;DHT22;12012;51.998;7.614;2023-09-30T03:40:02;11.90;1.00
23671;DHT22;12012;51.998;7.614;2023-09-30T03:42:38;11.80;1.00
23671;DHT22;12012;51.998;7.614;2023-09-30T03:45:05;11.80;1.00
23671;DHT22;12012;51.998;7.614;2023-09-30T03:47:34;11.80;1.00
23671;DHT22;12012;51.998;7.614;2023-09-30T03:49:59;11.90;1.00
23671;DHT22;12012;51.998;7.614;2023-09-30T03:52:25;11.80;1.00
23671;DHT22;12012;51.998;7.614;2023-09-30T03:54:51;11.80;1.00
23671;DHT22;12012;51.998;7.614;2023-09-30T03:57:19;11.80;1.00
23671;DHT22;12012;51.998;7.614;2023-09-30T03:59:44;11.80;1.00
23671;DHT22;12012;51.998;7.614;2023-09-30T04:02:11;11.80;1.00
23671;DHT22;12012;51.998;7.614;2023-09-30T04:04:37;11.80;1.00
23671;DHT22;12012;51.998;7.614;2023-09-30T04:07:03;11.80;1.00
23671;DHT22;12012;51.998;7.614;2023-09-30T04:09:31;11.70;1.00
23671;DHT22;12012;51.998;7.614;2023-09-30T04:11:57;11.70;1.00
23671;DHT22;12012;51.998;7.614;2023-09-30T04:14:23;11.70;1.00
23671;DHT22;12012;51.998;7.614;2023-09-30T04:16:50;11.70;1.00
23671;DHT22;12012;51.998;7.614;2023-09-30T04:19:16;11.70;1.00
23671;DHT22;12012;51.998;7.614;2023-09-30T04:21:42;11.70;1.00
23671;DHT22;12012;51.998;7.614;2023-09-30T04:24:08;11.60;1.00
23671;DHT22;12012;51.998;7.614;2023-09-30T04:26:34;11.60;1.00
23671;DHT22;12012;51.998;7.614;2023-09-30T04:29:00;11.60;1.00
23671;DHT22;12012;51.998;7.614;2023-09-30T04:31:28;11.60;1.00
23671;DHT22;12012;51.998;7.614;2023-09-30T04:33:54;11.60;1.00
23671;DHT22;12012;51.998;7.614;2023-09-30T04:36:20;11.60;1.00
23671;DHT22;12012;51.998;7.614;2023-09-30T04:38:47;11.60;1.00
23671;DHT22;12012;51.998;7.614;2023-09-30T04:41:13;11.60;1.00
23671;DHT22;12012;51.998;7.614;2023-09-30T04:43:39;11.50;1.00
23671;DHT22;12012;51.998;7.614;2023-09-30T04:46:05;11.50;1.00
23671;DHT22;12012;51.998;7.614;2023-09-30T04:48:32;11.50;1.00
23671;DHT22;12012;51.998;7.614;2023-09-30T04:50:59;11.50;1.00
23671;DHT22;12012;51.998;7.614;2023-09-30T04:53:24;11.50;1.00
23671;DHT22;12012;51.998;7.614;2023-09-30T04:55:50;11.50;1.00
23671;DHT22;12012;51.998;7.614;2023-09-30T04:58:16;11.50;1.00
23671;DHT22;12012;51.998;7.614;2023-09-30T05:00:42;11.50;1.00
23671;DHT22;12012;51.998;7.614;2023-09-30T05:03:11;11.50;1.00
23671;DHT22;12012;51.998;7.614;2023-09-30T05:05:39;11.50;1.00
23671;DHT22;12012;51.998;7.614;2023-09-30T05:08:05;11.50;1.00
23671;DHT22;12012;51.998;7.614;2023-09-30T05:10:31;11.50;1.00
23671;DHT22;12012;51.998;7.614;2023-09-30T05:12:57;11.50;1.00
23671;DHT22;12012;51.998;7.614;2023-09-30T05:15:22;11.50;1.00
23671;DHT22;12012;51.998;7.614;2023-09-30T05:17:48;11.50;1.00
23671;DHT22;12012;51.998;7.614;2023-09-30T05:20:16;11.50;1.00
23671;DHT22;12012;51.998;7.614;2023-09-30T05:22:42;11.50;1.00
23671;DHT22;12012;51.998;7.614;2023-09-30T05:25:14;11.50;16.70
23671;DHT22;12012;51.998;7.614;2023-09-30T05:27:46;11.50;28.50
23671;DHT22;12012;51.998;7.614;2023-09-30T05:30:15;11.40;8.00
23671;DHT22;12012;51.998;7.614;2023-09-30T05:32:41;11.40;4.30
23671;DHT22;12012;51.998;7.614;2023-09-30T05:35:07;11.40;1.00
23671;DHT22;12012;51.998;7.614;2023-09-30T05:37:42;11.50;25.20
23671;DHT22;12012;51.998;7.614;2023-09-30T05:40:08;11.50;39.90
23671;DHT22;12012;51.998;7.614;2023-09-30T05:42:58;11.40;31.50
23671;DHT22;12012;51.998;7.614;2023-09-30T05:45:25;11.50;27.80
23671;DHT22;12012;51.998;7.614;2023-09-30T05:47:52;11.50;18.40
23671;DHT22;12012;51.998;7.614;2023-09-30T05:50:18;11.50;9.50
23671;DHT22;12012;51.998;7.614;2023-09-30T05:52:49;11.50;14.20
23671;DHT22;12012;51.998;7.614;2023-09-30T05:55:16;11.50;17.80
23671;DHT22;12012;51.998;7.614;2023-09-30T05:57:45;11.50;14.70
23671;DHT22;12012;51.998;7.614;2023-09-30T06:00:13;11.50;40.20
23671;DHT22;12012;51.998;7.614;2023-09-30T06:02:49;11.50;35.60
23671;DHT22;12012;51.998;7.614;2023-09-30T06:05:15;11.50;39.40
23671;DHT22;12012;51.998;7.614;2023-09-30T06:07:47;11.50;28.70
23671;DHT22;12012;51.998;7.614;2023-09-30T06:10:13;11.50;25.50
23671;DHT22;12012;51.998;7.614;2023-09-30T06:12:44;11.50;20.10
23671;DHT22;12012;51.998;7.614;2023-09-30T06:15:10;11.50;19.70
23671;DHT22;12012;51.998;7.614;2023-09-30T06:17:36;11.50;32.70
23671;DHT22;12012;51.998;7.614;2023-09-30T06:20:05;11.60;28.60
23671;DHT22;12012;51.998;7.614;2023-09-30T06:22:34;11.60;14.60
23671;DHT22;12012;51.998;7.614;2023-09-30T06:25:00;11.60;9.10
23671;DHT22;12012;51.998;7.614;2023-09-30T06:27:27;11.60;22.90
23671;DHT22;12012;51.998;7.614;2023-09-30T06:29:53;11.70;34.90
23671;DHT22;12012;51.998;7.614;2023-09-30T06:32:18;11.70;32.80
23671;DHT22;12012;51.998;7.614;2023-09-30T06:34:44;11.80;31.60
23671;DHT22;12012;51.998;7.614;2023-09-30T06:37:09;11.80;27.50
23671;DHT22;12012;51.998;7.614;2023-09-30T06:39:35;11.90;19.80
23671;DHT22;12012;51.998;7.614;2023-09-30T06:42:01;12.00;43.70
23671;DHT22;12012;51.998;7.614;2023-09-30T06:44:26;12.00;27.30
23671;DHT22;12012;51.998;7.614;2023-09-30T06:46:53;12.10;30.10
23671;DHT22;12012;51.998;7.614;2023-09-30T06:49:20;12.20;28.70
23671;DHT22;12012;51.998;7.614;2023-09-30T06:51:46;12.40;14.80
23671;DHT22;12012;51.998;7.614;2023-09-30T06:54:13;12.50;8.50
23671;DHT22;12012;51.998;7.614;2023-09-30T06:56:38;12.60;5.40
23671;DHT22;12012;51.998;7.614;2023-09-30T06:59:04;12.70;1.00
23671;DHT22;12012;51.998;7.614;2023-09-30T07:01:30;12.90;1.00
23671;DHT22;12012;51.998;7.614;2023-09-30T07:03:55;13.10;1.00
23671;DHT22;12012;51.998;7.614;2023-09-30T07:06:24;13.30;1.00
23671;DHT22;12012;51.998;7.614;2023-09-30T07:08:50;13.50;1.00
23671;DHT22;12012;51.998;7.614;2023-09-30T07:11:16;13.70;1.00
23671;DHT22;12012;51.998;7.614;2023-09-30T07:13:42;13.80;1.00
23671;DHT22;12012;51.998;7.614;2023-09-30T07:16:07;14.00;1.00
23671;DHT22;12012;51.998;7.614;2023-09-30T07:18:33;14.20;1.00
23671;DHT22;12012;51.998;7.614;2023-09-30T07:20:58;14.40;1.00
23671;DHT22;12012;51.998;7.614;2023-09-30T07:23:24;14.50;1.00
23671;DHT22;12012;51.998;7.614;2023-09-30T07:25:50;14.70;1.00
23671;DHT22;12012;51.998;7.614;2023-09-30T07:28:15;14.90;1.00
23671;DHT22;12012;51.998;7.614;2023-09-30T07:30:41;15.00;99.90
23671;DHT22;12012;51.998;7.614;2023-09-30T07:33:07;15.10;99.90
23671;DHT22;12012;51.998;7.614;2023-09-30T07:35:33;15.30;74.90
23671;DHT22;12012;51.998;7.614;2023-09-30T07:37:59;15.50;99.90
23671;DHT22;12012;51.998;7.614;2023-09-30T07:40:24;15.60;1.00
23671;DHT22;12012;51.998;7.614;2023-09-30T07:42:50;15.80;1.00
23671;DHT22;12012;51.998;7.614;2023-09-30T07:45:16;15.90;99.90
23671;DHT22;12012;51.998;7.614;2023-09-30T07:47:44;16.00;99.90
23671;DHT22;12012;51.998;7.614;2023-09-30T07:50:09;16.20;99.90
23671;DHT22;12012;51.998;7.614;2023-09-30T07:52:36;16.30;30.40
23671;DHT22;12012;51.998;7.614;2023-09-30T07:55:02;16.40;99.90
23671;DHT22;12012;51.998;7.614;2023-09-30T07:57:30;16.50;1.00
23671;DHT22;12012;51.998;7.614;2023-09-30T07:59:55;16.60;99.90
23671;DHT22;12012;51.998;7.614;2023-09-30T08:02:21;16.80;1.00
23671;DHT22;12012;51.998;7.614;2023-09-30T08:04:48;16.90;99.90
23671;DHT22;12012;51.998;7.614;2023-09-30T08:07:13;17.10;99.90
23671;DHT22;12012;51.998;7.614;2023-09-30T08:09:39;17.40;1.00
23671;DHT22;12012;51.998;7.614;2023-09-30T08:12:05;17.60;67.80
23671;DHT22;12012;51.998;7.614;2023-09-30T08:14:32;17.90;99.90
23671;DHT22;12012;51.998;7.614;2023-09-30T08:16:57;18.10;99.90
23671;DHT22;12012;51.998;7.614;2023-09-30T08:19:23;18.30;16.30
23671;DHT22;12012;51.998;7.614;2023-09-30T08:21:48;18.50;99.90
23671;DHT22;12012;51.998;7.614;2023-09-30T08:24:14;18.60;99.90
23671;DHT22;12012;51.998;7.614;2023-09-30T08:26:40;18.70;1.00
23671;DHT22;12012;51.998;7.614;2023-09-30T08:29:05;18.70;22.90
23671;DHT22;12012;51.998;7.614;2023-09-30T08:31:31;18.80;1.00
23671;DHT22;12012;51.998;7.614;2023-09-30T08:33:58;19.00;1.00
23671;DHT22;12012;51.998;7.614;2023-09-30T08:36:23;19.10;1.00
23671;DHT22;12012;51.998;7.614;2023-09-30T08:38:50;19.30;1.00
23671;DHT22;12012;51.998;7.614;2023-09-30T08:41:45;19.50;1.00
23671;DHT22;12012;51.998;7.614;2023-09-30T08:44:11;19.80;99.90
23671;DHT22;12012;51.998;7.614;2023-09-30T08:46:39;20.00;99.90
23671;DHT22;12012;51.998;7.614;2023-09-30T08:49:05;20.10;99.90
23671;DHT22;12012;51.998;7.614;2023-09-30T08:51:32;20.20;99.90
23671;DHT22;12012;51.998;7.614;2023-09-30T08:53:58;20.40;99.90
23671;DHT22;12012;51.998;7.614;2023-09-30T08:56:27;20.60;99.90
23671;DHT22;12012;51.998;7.614;2023-09-30T08:58:57;20.70;99.90
23671;DHT22;12012;51.998;7.614;2023-09-30T09:01:26;20.90;99.90
23671;DHT22;12012;51.998;7.614;2023-09-30T09:03:53;20.90;98.90
23671;DHT22;12012;51.998;7.614;2023-09-30T09:06:23;20.90;98.40
23671;DHT22;12012;51.998;7.614;2023-09-30T09:08:48;21.00;90.00
23671;DHT22;12012;51.998;7.614;2023-09-30T09:11:15;21.20;91.50
23671;DHT22;12012;51.998;7.614;2023-09-30T09:13:51;21.10;64.40
23671;DHT22;12012;51.998;7.614;2023-09-30T09:16:21;20.90;62.30
23671;DHT22;12012;51.998;7.614;2023-09-30T09:18:48;21.20;68.60
23671;DHT22;12012;51.998;7.614;2023-09-30T09:21:19;21.60;39.50
23671;DHT22;12012;51.998;7.614;2023-09-30T09:23:47;21.90;30.30
23671;DHT22;12012;51.998;7.614;2023-09-30T09:26:33;21.90;36.20
23671;DHT22;12012;51.998;7.614;2023-09-30T09:29:02;22.20;27.20
23671;DHT22;12012;51.998;7.614;2023-09-30T09:31:34;22.30;1.00
23671;DHT22;12012;51.998;7.614;2023-09-30T09:34:01;22.50;1.00
23671;DHT22;12012;51.998;7.614;2023-09-30T09:36:43;22.80;1.00
23671;DHT22;12012;51.998;7.614;2023-09-30T09:39:09;23.10;1.00
23671;DHT22;12012;51.998;7.614;2023-09-30T09:41:59;23.30;1.00
23671;DHT22;12012;51.998;7.614;2023-09-30T09:44:27;23.50;1.00
23671;DHT22;12012;51.998;7.614;2023-09-30T09:46:52;23.80;1.00
23671;DHT22;12012;51.998;7.614;2023-09-30T09:49:19;24.00;1.00
23671;DHT22;12012;51.998;7.614;2023-09-30T09:51:47;24.30;1.00
23671;DHT22;12012;51.998;7.614;2023-09-30T09:54:14;24.40;1.00
23671;DHT22;12012;51.998;7.614;2023-09-30T09:56:44;24.60;1.00
23671;DHT22;12012;51.998;7.614;2023-09-30T09:59:12;24.60;1.00
23671;DHT22;12012;51.998;7.614;2023-09-30T10:01:38;24.80;1.00
23671;DHT22;12012;51.998;7.614;2023-09-30T10:04:05;25.10;1.00
23671;DHT22;12012;51.998;7.614;2023-09-30T10:06:32;25.30;1.00
23671;DHT22;12012;51.998;7.614;2023-09-30T10:09:07;25.50;1.00
23671;DHT22;12012;51.998;7.614;2023-09-30T10:11:33;25.60;1.00
23671;DHT22;12012;51.998;7.614;2023-09-30T10:13:59;25.80;1.00
23671;DHT22;12012;51.998;7.614;2023-09-30T10:19:21;26.40;1.00
23671;DHT22;12012;51.998;7.614;2023-09-30T10:24:41;26.90;1.00
23671;DHT22;12012;51.998;7.614;2023-09-30T10:30:06;26.20;1.00
23671;DHT22;12012;51.998;7.614;2023-09-30T10:40:48;25.20;1.00
23671;DHT22;12012;51.998;7.614;2023-09-30T10:43:33;25.10;1.00
23671;DHT22;12012;51.998;7.614;2023-09-30T10:48:52;25.00;1.00
23671;DHT22;12012;51.998;7.614;2023-09-30T10:51:19;25.40;1.00
23671;DHT22;12012;51.998;7.614;2023-09-30T10:53:52;26.10;1.00
23671;DHT22;12012;51.998;7.614;2023-09-30T10:56:20;26.80;1.00
23671;DHT22;12012;51.998;7.614;2023-09-30T11:01:14;26.10;1.00
23671;DHT22;12012;51.998;7.614;2023-09-30T11:03:43;26.30;1.00
23671;DHT22;12012;51.998;7.614;2023-09-30T11:06:13;26.50;1.00
23671;DHT22;12012;51.998;7.614;2023-09-30T11:08:45;27.80;1.00
23671;DHT22;12012;51.998;7.614;2023-09-30T11:11:12;28.20;1.00
23671;DHT22;12012;51.998;7.614;2023-09-30T11:13:39;27.40;1.00
23671;DHT22;12012;51.998;7.614;2023-09-30T11:16:06;27.50;1.00
23671;DHT22;12012;51.998;7.614;2023-09-30T11:18:32;29.30;1.00
23671;DHT22;12012;51.998;7.614;2023-09-30T11:21:05;29.60;1.00
23671;DHT22;12012;51.998;7.614;2023-09-30T11:23:32;28.60;1.00
23671;DHT22;12012;51.998;7.614;2023-09-30T11:25:58;27.80;1.00
23671;DHT22;12012;51.998;7.614;2023-09-30T11:28:24;27.50;1.00
23671;DHT22;12012;51.998;7.614;2023-09-30T11:31:01;26.60;1.00
23671;DHT22;12012;51.998;7.614;2023-09-30T11:33:31;27.10;1.00
23671;DHT22;12012;51.998;7.614;2023-09-30T11:36:03;28.00;1.00
23671;DHT22;12012;51.998;7.614;2023-09-30T11:38:30;29.80;1.00
23671;DHT22;12012;51.998;7.614;2023-09-30T11:43:25;32.60;1.00
23671;DHT22;12012;51.998;7.614;2023-09-30T11:45:50;33.70;1.00
23671;DHT22;12012;51.998;7.614;2023-09-30T11:48:19;34.50;1.00
23671;DHT22;12012;51.998;7.614;2023-09-30T11:50:47;35.40;1.00
23671;DHT22;12012;51.998;7.614;2023-09-30T11:53:16;35.90;1.00
23671;DHT22;12012;51.998;7.614;2023-09-30T11:55:43;36.40;1.00
23671;DHT22;12012;51.998;7.614;2023-09-30T11:58:08;36.70;1.00
23671;DHT22;12012;51.998;7.614;2023-09-30T12:00:35;36.90;1.00
23671;DHT22;12012;51.998;7.614;2023-09-30T12:03:00;37.20;1.00
23671;DHT22;12012;51.998;7.614;2023-09-30T12:05:26;37.70;1.00
23671;DHT22;12012;51.998;7.614;2023-09-30T12:07:51;38.10;1.00
23671;DHT22;12012;51.998;7.614;2023-09-30T12:10:17;38.20;1.00
23671;DHT22;12012;51.998;7.614;2023-09-30T12:12:42;38.20;1.00
23671;DHT22;12012;51.998;7.614;2023-09-30T12:15:10;38.30;1.00
23671;DHT22;12012;51.998;7.614;2023-09-30T12:17:36;38.20;1.00
23671;DHT22;12012;51.998;7.614;2023-09-30T12:20:02;36.30;1.00
23671;DHT22;12012;51.998;7.614;2023-09-30T12:22:29;34.90;1.00
23671;DHT22;12012;51.998;7.614;2023-09-30T12:24:54;34.50;1.00
23671;DHT22;12012;51.998;7.614;2023-09-30T12:27:20;35.20;1.00
23671;DHT22;12012;51.998;7.614;2023-09-30T12:29:45;36.10;1.00
23671;DHT22;12012;51.998;7.614;2023-09-30T12:32:13;36.90;1.00
23671;DHT22;12012;51.998;7.614;2023-09-30T12:34:39;37.50;1.00
23671;DHT22;12012;51.998;7.614;2023-09-30T12:37:06;37.50;1.00
23671;DHT22;12012;51.998;7.614;2023-09-30T12:39:32;37.60;1.00
23671;DHT22;12012;51.998;7.614;2023-09-30T12:41:58;37.70;1.00
23671;DHT22;12012;51.998;7.614;2023-09-30T12:44:24;37.70;1.00
23671;DHT22;12012;51.998;7.614;2023-09-30T12:46:49;37.60;1.00
23671;DHT22;12012;51.998;7.614;2023-09-30T12:49:15;37.00;1.00
23671;DHT22;12012;51.998;7.614;2023-09-30T12:51:41;36.30;1.00
23671;DHT22;12012;51.998;7.614;2023-09-30T12:54:06;35.60;1.00
23671;DHT22;12012;51.998;7.614;2023-09-30T12:56:33;35.10;1.00
23671;DHT22;12012;51.998;7.614;2023-09-30T12:58:59;34.80;1.00
23671;DHT22;12012;51.998;7.614;2023-09-30T13:01:25;34.60;1.00
23671;DHT22;12012;51.998;7.614;2023-09-30T13:03:51;34.30;1.00
23671;DHT22;12012;51.998;7.614;2023-09-30T13:06:17;34.20;1.00
23671;DHT22;12012;51.998;7.614;2023-09-30T13:08:43;33.70;1.00
23671;DHT22;12012;51.998;7.614;2023-09-30T13:11:09;33.40;1.00
23671;DHT22;12012;51.998;7.614;2023-09-30T13:13:34;33.30;1.00
23671;DHT22;12012;51.998;7.614;2023-09-30T13:16:01;33.40;1.00
23671;DHT22;12012;51.998;7.614;2023-09-30T13:18:27;33.50;1.00
23671;DHT22;12012;51.998;7.614;2023-09-30T13:20:53;33.10;1.00
23671;DHT22;12012;51.998;7.614;2023-09-30T13:23:20;32.10;1.00
23671;DHT22;12012;51.998;7.614;2023-09-30T13:25:45;31.60;1.00
23671;DHT22;12012;51.998;7.614;2023-09-30T13:28:11;31.70;1.00
23671;DHT22;12012;51.998;7.614;2023-09-30T13:30:37;31.80;1.00
23671;DHT22;12012;51.998;7.614;2023-09-30T13:33:03;32.00;1.00
23671;DHT22;12012;51.998;7.614;2023-09-30T13:35:28;32.10;1.00
23671;DHT22;12012;51.998;7.614;2023-09-30T13:37:54;32.30;1.00
23671;DHT22;12012;51.998;7.614;2023-09-30T13:40:19;32.50;1.00
23671;DHT22;12012;51.998;7.614;2023-09-30T13:42:45;32.50;1.00
23671;DHT22;12012;51.998;7.614;2023-09-30T13:45:12;32.30;1.00
23671;DHT22;12012;51.998;7.614;2023-09-30T13:47:37;32.10;1.00
23671;DHT22;12012;51.998;7.614;2023-09-30T13:50:03;31.90;1.00
23671;DHT22;12012;51.998;7.614;2023-09-30T13:52:29;31.80;1.00
23671;DHT22;12012;51.998;7.614;2023-09-30T13:54:55;31.80;1.00
23671;DHT22;12012;51.998;7.614;2023-09-30T13:57:21;31.80;1.00
23671;DHT22;12012;51.998;7.614;2023-09-30T13:59:46;31.90;1.00
23671;DHT22;12012;51.998;7.614;2023-09-30T14:02:12;31.70;1.00
23671;DHT22;12012;51.998;7.614;2023-09-30T14:04:38;31.70;1.00
23671;DHT22;12012;51.998;7.614;2023-09-30T14:07:04;31.50;1.00
23671;DHT22;12012;51.998;7.614;2023-09-30T14:09:30;31.50;1.00
23671;DHT22;12012;51.998;7.614;2023-09-30T14:11:56;31.30;1.00
23671;DHT22;12012;51.998;7.614;2023-09-30T14:14:24;31.10;1.00
23671;DHT22;12012;51.998;7.614;2023-09-30T14:16:49;31.00;1.00
23671;DHT22;12012;51.998;7.614;2023-09-30T14:19:15;31.00;1.00
23671;DHT22;12012;51.998;7.614;2023-09-30T14:21:41;30.90;1.00
23671;DHT22;12012;51.998;7.614;2023-09-30T14:24:07;30.70;1.00
23671;DHT22;12012;51.998;7.614;2023-09-30T14:26:33;30.40;1.00
23671;DHT22;12012;51.998;7.614;2023-09-30T14:28:59;30.10;1.00
23671;DHT22;12012;51.998;7.614;2023-09-30T14:31:25;29.80;1.00
23671;DHT22;12012;51.998;7.614;2023-09-30T14:33:50;29.50;1.00
23671;DHT22;12012;51.998;7.614;2023-09-30T14:36:17;29.10;1.00
23671;DHT22;12012;51.998;7.614;2023-09-30T14:38:43;28.70;1.00
23671;DHT22;12012;51.998;7.614;2023-09-30T14:41:10;28.30;1.00
23671;DHT22;12012;51.998;7.614;2023-09-30T14:43:38;27.70;1.00
23671;DHT22;12012;51.998;7.614;2023-09-30T14:46:04;27.20;1.00
23671;DHT22;12012;51.998;7.614;2023-09-30T14:48:29;26.60;1.00
23671;DHT22;12012;51.998;7.614;2023-09-30T14:50:55;26.20;1.00
23671;DHT22;12012;51.998;7.614;2023-09-30T14:53:22;25.80;1.00
23671;DHT22;12012;51.998;7.614;2023-09-30T14:55:48;25.40;1.00
23671;DHT22;12012;51.998;7.614;2023-09-30T14:58:13;25.00;1.00
23671;DHT22;12012;51.998;7.614;2023-09-30T15:00:39;24.80;1.00
23671;DHT22;12012;51.998;7.614;2023-09-30T15:03:05;24.40;1.00
23671;DHT22;12012;51.998;7.614;2023-09-30T15:05:31;24.20;1.00
23671;DHT22;12012;51.998;7.614;2023-09-30T15:07:57;24.00;1.00
23671;DHT22;12012;51.998;7.614;2023-09-30T15:10:25;23.80;1.00
23671;DHT22;12012;51.998;7.614;2023-09-30T15:12:50;23.60;1.00
23671;DHT22;12012;51.998;7.614;2023-09-30T15:15:16;23.40;1.00
23671;DHT22;12012;51.998;7.614;2023-09-30T15:17:41;23.20;1.00
23671;DHT22;12012;51.998;7.614;2023-09-30T15:20:08;23.00;1.00
23671;DHT22;12012;51.998;7.614;2023-09-30T15:22:33;22.80;1.00
23671;DHT22;12012;51.998;7.614;2023-09-30T15:24:59;22.80;1.00
23671;DHT22;12012;51.998;7.614;2023-09-30T15:27:25;22.70;1.00
23671;DHT22;12012;51.998;7.614;2023-09-30T15:29:51;22.60;1.00
23671;DHT22;12012;51.998;7.614;2023-09-30T15:32:16;22.60;1.00
23671;DHT22;12012;51.998;7.614;2023-09-30T15:34:42;22.50;1.00
23671;DHT22;12012;51.998;7.614;2023-09-30T15:37:08;22.40;1.00
23671;DHT22;12012;51.998;7.614;2023-09-30T15:39:38;22.30;1.00
23671;DHT22;12012;51.998;7.614;2023-09-30T15:42:04;22.20;1.00
23671;DHT22;12012;51.998;7.614;2023-09-30T15:44:29;22.10;1.00
23671;DHT22;12012;51.998;7.614;2023-09-30T15:46:56;21.90;1.00
23671;DHT22;12012;51.998;7.614;2023-09-30T15:49:22;21.70;1.00
23671;DHT22;12012;51.998;7.614;2023-09-30T15:51:48;21.50;1.00
23671;DHT22;12012;51.998;7.614;2023-09-30T15:54:14;21.40;1.00
23671;DHT22;12012;51.998;7.614;2023-09-30T15:56:40;21.30;1.00
23671;DHT22;12012;51.998;7.614;2023-09-30T15:59:07;21.20;1.00
23671;DHT22;12012;51.998;7.614;2023-09-30T16:01:33;21.10;1.00
23671;DHT22;12012;51.998;7.614;2023-09-30T16:03:58;20.90;1.00